Valdosta, GA

9:15 AM EST en Diciembre 04, 2016 (GMT -0500)
Valdosta Regional | | Change Station

Alt 203 ft 30.78 °N, 83.27 °W | Updated 22 minutes ago

Scattered Clouds
Nubes dispersas
59 ° F
Sensación térmica 59 ° F
N
5
Viento Variable Viento desde ENE

Hoy
Alta -- | Baja -- ° F
--% Posibilidad de precipitaciones
Ayer
Alta -- | Baja -- ° F
Precip. -- pul
Presión 30.12 pul
Visibilidad 10.0 Millas
Nubes Nubes dispersas 10000 ft
Punto de rocío 55 ° F
Humedad 87%
Precipitaciones 0.00 pul
Espesor de la nieve No disponible.
7:15 AM 5:31 PM
Creciente, 23% visible
METAR KVLD 041353Z 06004KT 10SM SCT100 15/13 A3009 RMK AO2 SLP199 T01500128
Presión 30.12 pul
Visibilidad 10.0 Millas
Nubes Nubes dispersas 10000 ft
Punto de rocío 55 ° F
Humedad 87%
Precipitaciones 0.00 pul
Espesor de la nieve No disponible.
7:15 AM 5:31 PM
Creciente, 23% visible
METAR KVLD 041353Z 06004KT 10SM SCT100 15/13 A3009 RMK AO2 SLP199 T01500128

10-Day Weather Forecast

Almanac

Astronomía

Dec. 04, 2016 Salida Puesta
Hora real
Crepúsculo civil
Crepúsculo náutico
Crepúsculo astronómico
Luna
Horas de luz
Horas de luz
Tomorrow will be .
, % of the Moon is Illuminated

Extremos de hoy

Máximos del estado Bajos del estado

Community

WunderPhotos

Upload Photos

1,955,598 ¡fotos cargadas!

WunderBlog® & News

Nearby

Calidad del aire

  Calidad del aire Índice AQ Contaminante
Not available.

Grosos de nieve

Estación Profundido Altura

Actividad de terremotos

Ciudad Distance Mag. Tiempo y dato
Magnitud mínima muestra es 2,5.

Temperaturas de aguas costeras

Lugar Temperatura

Stations

Estaciones meteorológicas cercanas

Ubicación de la estación Temp. Vientos helados Punto de rocío Humedad Viento Precip. Alt Actualizado Tipo
                   

Watches & Warnings

There are currently no watches in effect.